ADDS METAR Data INFO
IDs: Format: Raw Decoded Include TAF

Data at: 2052 UTC 19 Jul 2018

KSHL 192035Z AUTO 27012G21KT 10SM FEW039 FEW046 SCT060 26/19 A2971 RMK AO2
KSHL 192015Z AUTO 28014G20KT 10SM SCT037 BKN046 BKN055 26/19 A2972 RMK AO2
KSHL 191955Z AUTO 29012G18KT 10SM FEW035 SCT046 SCT055 26/19 A2972 RMK AO2
KSHL 191935Z AUTO 27014G21KT 10SM BKN034 BKN043 26/19 A2972 RMK AO2
KSHL 191915Z AUTO 29011G19KT 10SM FEW024 SCT029 BKN040 25/20 A2973 RMK AO2
KSHL 191855Z AUTO 28014G19KT 10SM SCT024 SCT032 BKN040 25/20 A2973 RMK AO2
KSHL 191835Z AUTO 29011G18KT 10SM FEW017 SCT021 OVC037 24/20 A2973 RMK AO2
KSHL 191815Z AUTO 27011G17KT 240V300 10SM SCT016 BKN033 OVC039 23/21 A2973 RMK AO2
KSHL 191755Z AUTO 26012G18KT 10SM SCT016 BKN027 OVC034 22/21 A2974 RMK AO2
KSHL 191735Z AUTO 27011G22KT 10SM BKN014 BKN025 OVC034 22/21 A2974 RMK AO2
KSHL 191715Z AUTO 27010G17KT 10SM FEW008 BKN013 OVC032 22/21 A2974 RMK AO2
KSHL 191655Z AUTO 27012KT 250V310 7SM SCT007 SCT013 BKN022 21/21 A2975 RMK AO2
KSHL 191635Z AUTO 27011G17KT 2SM BR SCT015 BKN022 21/20 A2975 RMK AO2
KSHL 191615Z AUTO 10SM BKN012 BKN020 OVC025 22/21 A2975 RMK AO2
KSHL 191555Z AUTO 10SM OVC012 21/20 A2975 RMK AO2
KSHL 191535Z AUTO 10SM OVC015 21/20 A2975 RMK AO2
KSHL 191515Z AUTO 27009G15KT 10SM BKN016 BKN022 OVC029 22/20 A2974 RMK AO2
KSHL 191455Z AUTO 25011KT 10SM FEW016 FEW023 OVC030 23/21 A2973 RMK AO2
KSHL 191435Z AUTO 25009KT 10SM FEW023 BKN030 OVC036 22/21 A2974 RMK AO2
KSHL 191415Z AUTO 25010KT 10SM SCT014 BKN033 OVC038 22/21 A2974 RMK AO2
KSHL 191355Z AUTO 23009KT 9SM BKN014 OVC020 22/22 A2974 RMK AO2
KSHL 191335Z AUTO 22008G15KT 8SM FEW010 BKN017 OVC023 22/22 A2974 RMK AO2
KSHL 191315Z AUTO 20007KT 150V230 6SM BR BKN010 BKN015 OVC025 22/22 A2974 RMK AO2
KSHL 191255Z AUTO 19009KT 6SM BR BKN010 OVC014 21/21 A2975 RMK AO2
KSHL 191235Z AUTO 19008G14KT 6SM BR BKN009 OVC016 21/21 A2975 RMK AO2
KSHL 191215Z AUTO 19011KT 6SM BR OVC009 21/21 A2975 RMK AO2
KSHL 191155Z AUTO 18012KT 6SM BR OVC009 21/21 A2976 RMK AO2
KSHL 191135Z AUTO 19009G15KT 8SM OVC008 21/20 A2976 RMK AO2
KSHL 191115Z AUTO 16010KT 10SM BKN009 BKN018 OVC022 20/20 A2977 RMK AO2
KSHL 191055Z AUTO 16009KT 10SM SCT013 BKN020 OVC055 20/20 A2977 RMK AO2
KSHL 191035Z AUTO 15011KT 10SM BKN015 BKN021 OVC030 20/20 A2978 RMK AO2
KSHL 191015Z AUTO 14010KT 10SM BKN015 BKN021 OVC110 20/20 A2979 RMK AO2
KSHL 190955Z AUTO 15007KT 10SM BKN014 BKN027 BKN032 20/20 A2980 RMK AO2
KSHL 190935Z AUTO 15008KT 10SM FEW015 SCT027 SCT032 20/20 A2980 RMK AO2
KSHL 190915Z AUTO 16007KT 10SM FEW016 SCT026 SCT120 20/20 A2981 RMK AO2
KSHL 190855Z AUTO 16009KT 10SM SCT049 BKN110 21/20 A2981 RMK AO2
KSHL 190835Z AUTO 16011G16KT 10SM BKN049 21/20 A2981 RMK AO2
KSHL 190815Z AUTO 15010KT 10SM FEW044 FEW120 21/20 A2981 RMK AO2
KSHL 190755Z AUTO 16010KT 10SM FEW120 21/20 A2982 RMK AO2
KSHL 190735Z AUTO 16011G17KT 10SM FEW040 FEW048 SCT055 22/20 A2983 RMK AO2
KSHL 190715Z AUTO 16012G22KT 10SM FEW040 SCT055 BKN110 22/20 A2983 RMK AO2
KSHL 190655Z AUTO 16014G20KT 10SM BKN045 BKN110 22/20 A2984 RMK AO2
KSHL 190635Z AUTO 15011KT 10SM OVC047 22/20 A2985 RMK AO2
KSHL 190615Z AUTO 16011KT 10SM OVC048 22/20 A2987 RMK AO2
KSHL 190555Z AUTO 16008KT 10SM OVC050 22/20 A2988 RMK AO2
KSHL 190535Z AUTO 16009KT 10SM BKN050 OVC075 22/20 A2989 RMK AO2
KSHL 190515Z AUTO 16010KT 10SM SCT049 BKN070 OVC095 22/20 A2989 RMK AO2
KSHL 190455Z AUTO 16009KT 10SM BKN048 OVC060 22/20 A2990 RMK AO2
KSHL 190435Z AUTO 16008KT 10SM BKN060 BKN120 22/20 A2991 RMK AO2
KSHL 190415Z AUTO 15007KT 10SM FEW049 SCT120 22/20 A2990 RMK AO2
KSHL 190355Z AUTO 15006KT 21/21 A2990 RMK AO2
KSHL 190335Z AUTO 14007KT 10SM CLR 21/21 A2991 RMK AO2
KSHL 190315Z AUTO 14007KT 10SM FEW120 21/21 A2991 RMK AO2
KSHL 190255Z AUTO 14009KT 10SM FEW080 BKN110 22/20 A2991 RMK AO2
KSHL 190235Z AUTO 14011G17KT 10SM FEW075 BKN100 22/20 A2991 RMK AO2
KSHL 190215Z AUTO 14012G20KT 10SM SCT070 SCT080 BKN090 22/20 A2991 RMK AO2
KSHL 190155Z AUTO 18011G19KT 9SM SCT048 SCT065 BKN075 24/19 A2992 RMK AO2
KSHL 190135Z AUTO 14009KT 10SM FEW050 SCT120 24/19 A2991 RMK AO2
KSHL 190115Z AUTO 14008KT 10SM SCT050 BKN055 BKN090 25/19 A2992 RMK AO2
KSHL 190055Z AUTO 14008KT 10SM SCT085 25/19 A2993 RMK AO2
KSHL 190035Z AUTO 13006KT 10SM BKN080 BKN090 26/20 A2993 RMK AO2
KSHL 190015Z AUTO 14008KT 10SM BKN080 BKN090 26/19 A2993 RMK AO2
KSHL 182355Z AUTO 14007KT 10SM SCT075 26/19 A2994 RMK AO2
KSHL 182335Z AUTO 14011KT 10SM CLR 26/18 A2994 RMK AO2
KSHL 182315Z AUTO 10SM FEW110 26/19 A2994 RMK AO2
KSHL 182255Z AUTO 10SM SCT110 27/18 A2994 RMK AO2
KSHL 182235Z AUTO 10SM CLR 27/18 A2996 RMK AO2
KSHL 182215Z AUTO 10SM CLR 27/18 A2996 RMK AO2
KSHL 182155Z AUTO 14012KT 10SM FEW044 FEW050 27/18 A2996 RMK AO2
KSHL 182135Z AUTO 13011KT 10SM SCT044 SCT050 27/19 A2997 RMK AO2
KSHL 182115Z AUTO 17013KT 10SM FEW042 27/19 A2998 RMK AO2
KSHL 182055Z AUTO 14011G16KT 10SM SCT040 27/19 A2999 RMK AO2
KSHL 182035Z AUTO 15010G16KT 10SM CLR 27/20 A3000 RMK AO2
KSHL 182015Z AUTO 17010KT 10SM SCT039 SCT045 SCT050 26/20 A3000 RMK AO2
KSHL 181955Z AUTO 16008KT 10SM SCT041 SCT050 26/20 A3001 RMK AO2
KSHL 181935Z AUTO 14011KT 10SM SCT038 SCT046 26/20 A3000 RMK AO2
KSHL 181915Z AUTO 16013KT 10SM FEW038 27/20 A3001 RMK AO2
KSHL 181855Z AUTO 14010KT 10SM CLR 27/20 A3002 RMK AO2
KSHL 181835Z AUTO 14010KT 10SM CLR 26/19 A3002 RMK AO2
KSHL 181815Z AUTO 15013KT 10SM CLR 27/19 A3003 RMK AO2
KSHL 181755Z AUTO 15010KT 10SM CLR 27/20 A3003 RMK AO2
KSHL 181735Z AUTO 14012KT 10SM CLR 26/19 A3004 RMK AO2
KSHL 181715Z AUTO 13008G14KT 10SM CLR 26/19 A3004 RMK AO2
KSHL 181655Z AUTO 14011KT 10SM CLR 25/19 A3005 RMK AO2
KSHL 181635Z AUTO 14009G15KT CLR 26/19 A3005 RMK AO2
KSHL 181615Z AUTO 15010G16KT 10SM CLR 26/18 A3005 RMK AO2
KSHL 181555Z AUTO 14007G16KT 10SM CLR 24/19 A3005 RMK AO2
KSHL 181535Z AUTO 14008G13KT 10SM CLR 24/18 A3005 RMK AO2
KSHL 181515Z AUTO 14009KT 10SM CLR 25/18 A3005 RMK AO2
KSHL 181455Z AUTO 14007KT 10SM CLR 24/19 A3006 RMK AO2
KSHL 181435Z AUTO 12004KT 10SM CLR 23/20 A3007 RMK AO2
KSHL 181415Z AUTO 14004KT 10SM CLR 23/21 A3007 RMK AO2
KSHL 181355Z AUTO 13005KT 10SM CLR 22/21 A3008 RMK AO2
KSHL 181335Z AUTO 11004KT 9SM CLR 20/20 A3008 RMK AO2
KSHL 181315Z AUTO 13004KT 10SM CLR 20/20 A3008 RMK AO2
KSHL 181255Z AUTO 11004KT 10SM CLR 19/19 A3009 RMK AO2
KSHL 181235Z AUTO 00000KT 10SM CLR 19/19 A3010 RMK AO2
KSHL 181215Z AUTO 11003KT 10SM CLR 18/18 A3009 RMK AO2
KSHL 181155Z AUTO 00000KT 10SM CLR 17/17 A3008 RMK AO2
KSHL 181135Z AUTO 00000KT 10SM CLR 16/16 A3008 RMK AO2
KSHL 181115Z AUTO 09004KT 10SM CLR 15/15 A3007 RMK AO2
KSHL 181055Z AUTO 00000KT 10SM CLR 16/15 A3008 RMK AO2
KSHL 181035Z AUTO 00000KT 10SM CLR 15/15 A3008 RMK AO2
KSHL 181015Z AUTO 00000KT 10SM CLR 16/16 A3008 RMK AO2
KSHL 180955Z AUTO 00000KT 10SM CLR 17/17 A3007 RMK AO2
KSHL 180935Z AUTO 09007KT 10SM CLR 17/16 A3008 RMK AO2
KSHL 180915Z AUTO 11004KT 10SM CLR 16/16 A3008 RMK AO2
KSHL 180855Z AUTO 00000KT 10SM CLR 16/16 A3009 RMK AO2